Time;durP1;ratioP1;P1;durP2;ratioP2;P2;SDS_P1;SDS_P2;PMS_P1;PMS_P2;Temp;Humidity;BMP_temperature;BMP_pressure;BME280_temperature;BME280_humidity;BME280_pressure;Samples;Min_cycle;Max_cycle;Signal;HPM_P1;HPM_P2
2022/08/30 00:03:26;;;;;;;3.95;1.63;;;18.30;99.90;;;;;;4993035;28;20053;-73
2022/08/30 00:05:52;;;;;;;2.40;0.98;;;18.30;99.90;;;;;;4977696;28;20429;-73
2022/08/30 00:08:18;;;;;;;3.63;1.38;;;18.20;99.90;;;;;;4977413;28;20050;-74
2022/08/30 00:10:45;;;;;;;1.90;1.13;;;18.30;99.90;;;;;;4977315;28;20376;-73
2022/08/30 00:13:12;;;;;;;1.90;1.27;;;18.20;99.90;;;;;;4977635;28;20042;-73
2022/08/30 00:15:40;;;;;;;4.78;1.20;;;18.20;99.90;;;;;;4976386;28;20047;-74
2022/08/30 00:18:06;;;;;;;3.92;1.50;;;18.10;99.90;;;;;;4976792;28;20049;-74
2022/08/30 00:20:33;;;;;;;2.38;1.33;;;18.00;99.90;;;;;;4977480;28;20038;-73
2022/08/30 00:22:59;;;;;;;3.05;1.23;;;18.00;99.90;;;;;;4977634;28;20330;-73
2022/08/30 00:25:25;;;;;;;2.88;1.33;;;17.90;99.90;;;;;;4977428;28;20053;-73
2022/08/30 00:27:52;;;;;;;4.25;1.30;;;17.90;99.90;;;;;;4976296;28;20054;-73
2022/08/30 00:30:18;;;;;;;3.63;1.20;;;17.90;99.90;;;;;;4976131;28;20043;-73
2022/08/30 00:32:44;;;;;;;1.88;1.13;;;17.80;99.90;;;;;;4977271;28;20426;-73
2022/08/30 00:35:12;;;;;;;5.38;1.58;;;17.80;99.90;;;;;;4992351;28;20059;-73
2022/08/30 00:37:38;;;;;;;3.28;1.50;;;17.70;99.90;;;;;;4977329;28;20054;-73
2022/08/30 00:40:08;;;;;;;3.67;1.65;;;17.70;99.90;;;;;;4992427;28;20043;-73
2022/08/30 00:42:34;;;;;;;3.30;1.73;;;17.60;99.90;;;;;;4976857;28;20042;-73
2022/08/30 00:45:09;;;;;;;4.32;1.80;;;17.60;99.90;;;;;;4976145;28;20527;-73
2022/08/30 00:47:35;;;;;;;3.25;1.48;;;17.60;99.90;;;;;;4976151;28;20170;-73
2022/08/30 00:50:01;;;;;;;2.80;1.45;;;17.60;99.90;;;;;;4977053;28;20131;-74
2022/08/30 00:52:27;;;;;;;2.92;1.50;;;17.60;99.90;;;;;;4976094;28;20047;-73
2022/08/30 00:54:53;;;;;;;3.38;1.42;;;17.60;99.90;;;;;;4976367;28;20066;-73
2022/08/30 00:57:19;;;;;;;2.50;1.08;;;17.60;99.90;;;;;;4976266;28;20447;-73
2022/08/30 00:59:48;;;;;;;4.75;1.50;;;17.60;99.90;;;;;;4977961;28;20130;-73
2022/08/30 01:02:18;;;;;;;2.55;1.40;;;17.60;99.90;;;;;;4979809;28;20042;-73
2022/08/30 01:04:44;;;;;;;5.60;1.50;;;17.50;99.90;;;;;;4980568;28;20039;-73
2022/08/30 01:07:10;;;;;;;4.28;1.50;;;17.50;99.90;;;;;;4995951;28;20047;-73
2022/08/30 01:09:36;;;;;;;2.78;1.55;;;17.60;99.90;;;;;;4979774;28;20042;-73
2022/08/30 01:12:03;;;;;;;3.35;1.70;;;17.50;99.90;;;;;;4980059;28;20042;-73
2022/08/30 01:14:32;;;;;;;2.97;1.70;;;17.50;99.90;;;;;;4980516;28;20046;-73
2022/08/30 01:17:00;;;;;;;3.83;1.90;;;17.50;99.90;;;;;;4995902;28;20101;-73
2022/08/30 01:19:45;;;;;;;6.43;1.40;;;17.50;99.90;;;;;;4979314;28;20489;-74
2022/08/30 01:22:29;;;;;;;5.13;1.70;;;17.50;99.90;;;;;;4980470;28;20068;-73
2022/08/30 01:24:58;;;;;;;3.05;1.73;;;17.60;99.90;;;;;;4979216;28;20098;-73
2022/08/30 01:27:25;;;;;;;4.82;2.22;;;17.60;99.90;;;;;;4979257;28;20043;-73
2022/08/30 01:29:52;;;;;;;3.85;2.00;;;17.60;99.90;;;;;;4980226;28;20122;-73
2022/08/30 01:32:20;;;;;;;3.40;1.92;;;17.80;99.90;;;;;;4980185;28;20496;-73
2022/08/30 01:34:49;;;;;;;3.90;2.15;;;17.70;99.90;;;;;;4978772;28;20061;-73
2022/08/30 01:37:23;;;;;;;6.38;2.40;;;17.70;99.90;;;;;;4995242;28;20369;-73
2022/08/30 01:39:49;;;;;;;4.53;2.33;;;17.80;99.90;;;;;;4979289;28;20407;-73
2022/08/30 01:42:16;;;;;;;4.65;2.15;;;17.80;99.90;;;;;;4994781;28;20126;-74
2022/08/30 01:44:44;;;;;;;6.18;2.70;;;17.80;99.90;;;;;;4995012;28;20039;-73
2022/08/30 01:47:10;;;;;;;4.80;2.13;;;17.90;99.90;;;;;;4980009;28;20054;-73
2022/08/30 01:49:36;;;;;;;5.95;3.00;;;17.90;99.90;;;;;;4979890;28;20035;-73
2022/08/30 01:52:04;;;;;;;5.70;2.78;;;17.90;99.90;;;;;;4979073;28;20383;-73
2022/08/30 01:54:31;;;;;;;5.20;2.20;;;17.90;99.90;;;;;;4979889;28;20050;-73
2022/08/30 01:56:56;;;;;;;5.78;2.47;;;17.90;99.90;;;;;;4979797;28;20039;-73
2022/08/30 01:59:22;;;;;;;4.65;2.30;;;17.90;99.90;;;;;;4979688;28;20448;-74
2022/08/30 02:01:48;;;;;;;5.82;2.63;;;17.90;99.90;;;;;;4978670;28;20050;-73
2022/08/30 02:04:14;;;;;;;3.60;2.28;;;17.90;99.90;;;;;;4978535;28;20050;-73
2022/08/30 02:06:40;;;;;;;3.72;2.40;;;17.90;99.90;;;;;;4995066;28;20345;-73
2022/08/30 02:09:06;;;;;;;4.13;2.25;;;17.90;99.90;;;;;;4995033;28;20050;-73
2022/08/30 02:11:33;;;;;;;4.25;2.40;;;17.80;99.90;;;;;;4979142;28;20047;-74
2022/08/30 02:13:58;;;;;;;2.38;1.63;;;17.80;99.90;;;;;;4979618;28;20039;-73
2022/08/30 02:16:25;;;;;;;4.95;2.80;;;17.80;99.90;;;;;;4978313;28;20043;-73
2022/08/30 02:18:52;;;;;;;3.25;2.17;;;17.80;99.90;;;;;;4978466;28;20409;-73
2022/08/30 02:21:18;;;;;;;3.47;2.08;;;17.80;99.90;;;;;;4979254;28;20053;-74
2022/08/30 02:23:44;;;;;;;3.25;2.00;;;17.80;99.90;;;;;;4994377;28;20430;-73
2022/08/30 02:26:11;;;;;;;5.47;2.22;;;17.70;99.90;;;;;;4978957;28;20097;-74
2022/08/30 02:28:36;;;;;;;4.03;2.33;;;17.70;99.90;;;;;;4978470;28;20047;-73
2022/08/30 02:31:02;;;;;;;3.88;2.17;;;17.70;99.90;;;;;;4994245;28;20089;-73
2022/08/30 02:33:28;;;;;;;3.47;2.22;;;17.70;99.90;;;;;;4979250;28;20046;-74
2022/08/30 02:35:55;;;;;;;4.68;2.35;;;17.60;99.90;;;;;;4978765;28;20350;-73
2022/08/30 02:38:22;;;;;;;3.70;1.80;;;17.60;99.90;;;;;;4978954;28;20112;-73
2022/08/30 02:40:48;;;;;;;4.53;2.15;;;17.60;99.90;;;;;;4977765;28;20054;-73
2022/08/30 02:43:14;;;;;;;4.22;2.25;;;17.50;99.90;;;;;;4978755;28;20042;-73
2022/08/30 02:45:40;;;;;;;4.40;2.22;;;17.50;99.90;;;;;;4994347;28;20054;-73
2022/08/30 02:48:05;;;;;;;4.13;2.50;;;17.50;99.90;;;;;;4978328;28;20334;-73
2022/08/30 02:50:31;;;;;;;3.85;2.10;;;17.50;99.90;;;;;;4977585;28;20051;-73
2022/08/30 02:53:02;;;;;;;2.90;2.00;;;17.50;99.90;;;;;;4977572;28;20043;-73
2022/08/30 02:55:27;;;;;;;4.72;2.35;;;17.50;99.90;;;;;;4978723;28;20171;-73
2022/08/30 02:57:53;;;;;;;3.08;1.77;;;17.50;99.90;;;;;;4978586;28;20076;-73
2022/08/30 03:00:19;;;;;;;3.58;1.95;;;17.40;99.90;;;;;;4978710;28;20098;-73
2022/08/30 03:02:45;;;;;;;3.28;2.13;;;17.40;99.90;;;;;;4977679;28;20053;-73
2022/08/30 03:05:13;;;;;;;5.93;2.13;;;17.30;99.90;;;;;;4993813;28;20504;-73
2022/08/30 03:07:43;;;;;;;4.95;1.90;;;17.30;99.90;;;;;;4977366;28;20042;-73
2022/08/30 03:10:09;;;;;;;5.57;2.40;;;17.30;99.90;;;;;;4978506;28;20043;-73
2022/08/30 03:12:35;;;;;;;3.78;1.90;;;17.30;99.90;;;;;;4977017;28;20102;-73
2022/08/30 03:15:01;;;;;;;3.65;2.20;;;17.20;99.90;;;;;;4978342;28;20031;-73
2022/08/30 03:17:28;;;;;;;3.28;2.10;;;17.20;99.90;;;;;;4977439;28;20332;-73
2022/08/30 03:19:54;;;;;;;5.13;2.50;;;17.20;99.90;;;;;;4978155;28;20078;-73
2022/08/30 03:22:19;;;;;;;4.68;2.13;;;17.20;99.90;;;;;;4992879;28;20081;-73
2022/08/30 03:24:45;;;;;;;4.43;2.30;;;17.20;99.90;;;;;;4978120;28;20074;-73
2022/08/30 03:27:11;;;;;;;3.53;2.10;;;17.30;99.90;;;;;;4978438;28;20043;-73
2022/08/30 03:29:38;;;;;;;4.18;2.67;;;17.30;99.90;;;;;;4978077;28;20050;-73
2022/08/30 03:32:04;;;;;;;5.60;2.55;;;17.30;99.90;;;;;;4992903;28;20039;-73
2022/08/30 03:34:30;;;;;;;5.80;2.63;;;17.20;99.90;;;;;;4978007;28;20058;-73
2022/08/30 03:36:57;;;;;;;7.47;2.92;;;17.20;99.90;;;;;;4977878;28;20039;-73
2022/08/30 03:39:23;;;;;;;6.18;3.42;;;17.20;99.90;;;;;;4977210;28;20043;-73
2022/08/30 03:41:49;;;;;;;3.03;2.50;;;17.20;99.90;;;;;;4977419;28;20053;-73
2022/08/30 03:44:15;;;;;;;6.38;2.75;;;17.20;99.90;;;;;;4977994;28;20038;-73
2022/08/30 03:46:41;;;;;;;5.80;2.92;;;17.10;99.90;;;;;;4978139;28;20437;-73
2022/08/30 03:49:07;;;;;;;5.32;2.67;;;17.10;99.90;;;;;;4976755;28;20370;-73
2022/08/30 03:51:33;;;;;;;7.05;3.03;;;17.10;99.90;;;;;;4976532;28;20385;-73
2022/08/30 03:53:59;;;;;;;5.13;3.30;;;17.00;99.90;;;;;;4976626;28;20072;-73
2022/08/30 03:56:25;;;;;;;4.65;2.75;;;16.90;99.90;;;;;;4977793;28;20046;-73
2022/08/30 03:58:51;;;;;;;4.75;2.63;;;17.00;99.90;;;;;;4976618;28;20047;-73
2022/08/30 04:01:17;;;;;;;5.75;2.95;;;17.00;99.90;;;;;;4977790;28;20045;-73
2022/08/30 04:03:42;;;;;;;5.43;2.63;;;17.00;99.90;;;;;;4976602;28;20121;-73
2022/08/30 04:06:08;;;;;;;6.07;2.65;;;17.00;99.90;;;;;;4977353;28;20035;-73
2022/08/30 04:08:33;;;;;;;4.07;2.40;;;16.90;99.90;;;;;;4977808;28;20464;-73
2022/08/30 04:11:01;;;;;;;3.15;2.40;;;16.90;99.90;;;;;;4976128;28;20473;-73
2022/08/30 04:13:28;;;;;;;4.93;2.47;;;16.80;99.90;;;;;;4977563;28;20045;-73
2022/08/30 04:15:54;;;;;;;5.43;2.78;;;16.70;99.90;;;;;;4976677;28;20070;-73
2022/08/30 04:18:20;;;;;;;5.10;2.35;;;16.80;99.90;;;;;;4976479;28;20082;-73
2022/08/30 04:20:46;;;;;;;3.63;2.50;;;16.70;99.90;;;;;;4977224;28;20081;-73
2022/08/30 04:23:12;;;;;;;7.03;2.80;;;16.70;99.90;;;;;;4976356;28;20043;-73
2022/08/30 04:25:40;;;;;;;5.63;2.70;;;16.60;99.90;;;;;;4977714;28;20061;-73
2022/08/30 04:28:07;;;;;;;6.20;3.03;;;16.60;99.90;;;;;;4976496;28;20047;-73
2022/08/30 04:30:33;;;;;;;7.70;2.88;;;16.50;99.90;;;;;;4976392;28;20074;-73
2022/08/30 04:32:59;;;;;;;6.15;2.88;;;16.40;99.90;;;;;;4977360;28;20373;-73
2022/08/30 04:35:25;;;;;;;4.78;2.90;;;16.40;99.90;;;;;;4978114;28;20125;-73
2022/08/30 04:37:51;;;;;;;5.57;3.10;;;16.40;99.90;;;;;;4981296;28;20053;-73
2022/08/30 04:40:17;;;;;;;3.90;2.53;;;16.30;99.90;;;;;;4980105;28;20043;-73
2022/08/30 04:42:42;;;;;;;5.60;2.90;;;16.30;99.90;;;;;;4980749;28;20423;-73
2022/08/30 04:45:14;;;;;;;4.35;2.67;;;16.30;99.90;;;;;;4981054;28;20046;-73
2022/08/30 04:47:41;;;;;;;4.57;2.50;;;16.30;99.90;;;;;;4981197;28;20050;-74
2022/08/30 04:50:09;;;;;;;5.13;2.70;;;16.30;99.90;;;;;;4979822;28;20046;-73
2022/08/30 04:52:36;;;;;;;5.60;3.25;;;16.40;99.90;;;;;;4980315;28;20437;-73
2022/08/30 04:55:02;;;;;;;6.45;3.13;;;16.50;99.90;;;;;;4981037;28;20070;-73
2022/08/30 04:57:28;;;;;;;4.97;2.92;;;16.60;99.90;;;;;;4981162;28;20066;-73
2022/08/30 04:59:54;;;;;;;4.95;3.10;;;16.70;99.90;;;;;;4980909;28;20149;-73
2022/08/30 05:02:20;;;;;;;7.00;3.20;;;16.80;99.90;;;;;;4980733;28;20130;-73
2022/08/30 05:07:31;;;;;;;6.65;3.58;;;16.60;99.90;;;;;;4980965;28;20061;-73
2022/08/30 05:09:57;;;;;;;5.43;2.88;;;16.50;99.90;;;;;;4979640;28;20043;-73
2022/08/30 05:12:23;;;;;;;5.57;3.30;;;16.40;99.90;;;;;;4980053;28;20455;-73
2022/08/30 05:14:50;;;;;;;6.25;3.00;;;16.40;99.90;;;;;;4996095;28;20125;-73
2022/08/30 05:17:15;;;;;;;5.05;3.10;;;16.30;99.90;;;;;;4979484;28;20046;-74
2022/08/30 05:19:41;;;;;;;6.93;3.28;;;16.30;99.90;;;;;;4979388;28;20326;-73
2022/08/30 05:22:07;;;;;;;5.15;2.90;;;16.30;99.90;;;;;;4980459;28;20089;-73
2022/08/30 05:24:33;;;;;;;5.43;2.53;;;16.20;99.90;;;;;;4980580;28;20038;-73
2022/08/30 05:26:59;;;;;;;4.90;3.10;;;16.30;99.90;;;;;;4980330;28;20039;-73
2022/08/30 05:29:25;;;;;;;5.70;2.92;;;16.30;99.90;;;;;;4979117;28;20093;-74
2022/08/30 05:31:50;;;;;;;4.43;2.83;;;16.40;99.90;;;;;;4980045;28;20079;-73
2022/08/30 05:34:16;;;;;;;4.90;2.65;;;16.40;99.90;;;;;;4980126;28;20042;-74
2022/08/30 05:36:42;;;;;;;6.60;2.42;;;16.40;99.90;;;;;;4980153;28;20054;-73
2022/08/30 05:39:09;;;;;;;4.80;2.67;;;16.50;99.90;;;;;;4979983;28;20043;-73
2022/08/30 05:41:37;;;;;;;7.65;3.10;;;16.60;99.90;;;;;;4994907;28;20502;-73
2022/08/30 05:44:05;;;;;;;4.22;2.80;;;16.60;99.90;;;;;;4979969;28;20045;-73
2022/08/30 05:46:34;;;;;;;5.78;2.88;;;16.70;99.90;;;;;;4979422;28;20445;-73
2022/08/30 05:49:02;;;;;;;5.50;3.08;;;16.80;99.90;;;;;;4980131;28;20082;-73
2022/08/30 05:51:29;;;;;;;6.55;2.95;;;16.80;99.90;;;;;;4978679;28;20051;-73
2022/08/30 05:53:57;;;;;;;4.55;2.45;;;16.90;99.90;;;;;;4978759;28;20452;-73
2022/08/30 05:56:26;;;;;;;4.55;2.80;;;17.10;99.90;;;;;;4979750;28;20448;-73
2022/08/30 05:58:53;;;;;;;6.65;3.50;;;17.20;99.90;;;;;;4980144;28;20133;-73
2022/08/30 06:01:26;;;;;;;6.25;2.90;;;17.30;99.90;;;;;;4979508;28;20043;-73
2022/08/30 06:03:53;;;;;;;4.30;2.65;;;17.40;99.90;;;;;;4979666;28;20468;-73
2022/08/30 06:06:19;;;;;;;6.32;3.00;;;17.40;99.90;;;;;;4995131;28;20054;-72
2022/08/30 06:08:47;;;;;;;7.38;2.60;;;17.40;99.90;;;;;;4978369;28;20072;-73
2022/08/30 06:11:15;;;;;;;6.35;3.00;;;17.50;99.90;;;;;;4978928;28;20043;-74
2022/08/30 06:13:41;;;;;;;6.57;2.80;;;17.60;99.90;;;;;;4979518;28;20044;-73
2022/08/30 06:16:11;;;;;;;7.15;2.70;;;17.80;99.90;;;;;;4978315;28;20049;-73
2022/08/30 06:18:36;;;;;;;3.42;2.53;;;17.90;99.90;;;;;;4979337;28;20049;-73
2022/08/30 06:21:02;;;;;;;6.00;2.80;;;18.00;99.90;;;;;;4979390;28;20038;-73
2022/08/30 06:23:28;;;;;;;5.03;3.15;;;18.20;99.90;;;;;;4979275;28;20453;-72
2022/08/30 06:25:54;;;;;;;1.85;1.15;;;18.20;99.90;;;;;;4979163;28;20422;-78
2022/08/30 06:28:19;;;;;;;5.07;2.67;;;18.30;99.90;;;;;;4979390;28;20424;-71
2022/08/30 06:30:45;;;;;;;4.50;3.30;;;18.50;99.90;;;;;;4978966;28;20448;-71
2022/08/30 06:33:11;;;;;;;10.75;3.45;;;18.60;99.90;;;;;;4979197;28;20054;-68
2022/08/30 06:35:37;;;;;;;6.57;3.03;;;18.50;99.90;;;;;;4978885;28;20350;-70
2022/08/30 06:38:03;;;;;;;8.57;2.60;;;18.60;99.90;;;;;;4979074;28;20057;-70
2022/08/30 06:40:29;;;;;;;5.80;2.45;;;18.60;99.90;;;;;;4994213;28;20051;-69
2022/08/30 06:42:55;;;;;;;6.32;2.75;;;18.70;99.90;;;;;;4977627;28;20054;-70
2022/08/30 06:45:21;;;;;;;6.00;2.40;;;18.60;99.90;;;;;;4979041;28;20329;-70
2022/08/30 06:47:47;;;;;;;5.50;2.38;;;18.50;99.90;;;;;;4994187;28;20136;-70
2022/08/30 06:50:15;;;;;;;7.05;2.45;;;18.80;99.90;;;;;;4978984;28;20042;-70
2022/08/30 06:52:42;;;;;;;8.55;2.60;;;18.90;99.90;;;;;;4977737;28;20441;-70
2022/08/30 06:55:10;;;;;;;5.40;1.98;;;19.10;99.90;;;;;;4978613;28;20436;-71
2022/08/30 06:57:36;;;;;;;4.95;2.00;;;19.10;99.90;;;;;;4978048;28;20093;-70
2022/08/30 07:00:04;;;;;;;6.13;1.90;;;19.10;99.90;;;;;;4978661;28;20433;-69
2022/08/30 07:02:30;;;;;;;7.25;2.15;;;19.20;99.90;;;;;;4994745;28;20398;-68
2022/08/30 07:04:56;;;;;;;6.65;2.25;;;19.20;99.90;;;;;;4982942;28;20046;-69
2022/08/30 07:07:22;;;;;;;5.22;1.92;;;19.20;99.90;;;;;;4978715;28;20364;-69
2022/08/30 07:09:47;;;;;;;6.45;1.80;;;19.30;99.90;;;;;;4978348;28;20122;-69
2022/08/30 07:12:14;;;;;;;6.45;1.63;;;19.20;99.90;;;;;;4978007;28;20047;-69
2022/08/30 07:14:41;;;;;;;3.75;1.50;;;19.10;99.90;;;;;;4978407;28;20082;-69
2022/08/30 07:19:53;;;;;;;5.50;1.30;;;19.50;99.90;;;;;;4978320;28;20050;-70
2022/08/30 07:22:20;;;;;;;2.88;1.58;;;19.40;99.90;;;;;;4978407;28;20038;-70
2022/08/30 07:24:46;;;;;;;5.13;1.58;;;19.40;99.90;;;;;;4978440;28;20042;-70
2022/08/30 07:27:13;;;;;;;5.68;2.08;;;19.40;99.90;;;;;;4978193;28;20453;-73
2022/08/30 07:29:39;;;;;;;7.32;1.85;;;19.50;99.90;;;;;;4977423;28;20168;-69
2022/08/30 07:32:05;;;;;;;6.70;1.95;;;19.50;99.90;;;;;;4978074;28;20377;-70
2022/08/30 07:34:30;;;;;;;2.75;1.42;;;19.60;99.90;;;;;;4992911;28;20054;-70
2022/08/30 07:36:56;;;;;;;4.00;1.70;;;19.70;99.90;;;;;;4977817;28;20456;-69
2022/08/30 07:39:22;;;;;;;6.63;1.55;;;19.90;99.90;;;;;;4978086;28;20120;-69
2022/08/30 07:41:49;;;;;;;6.53;2.05;;;19.90;99.90;;;;;;4977666;28;20074;-68
2022/08/30 07:44:15;;;;;;;3.20;1.25;;;19.90;99.90;;;;;;4977904;28;20043;-69
2022/08/30 07:46:42;;;;;;;3.90;1.20;;;20.00;99.90;;;;;;4978041;28;20047;-69
2022/08/30 07:49:08;;;;;;;2.85;1.10;;;20.10;99.90;;;;;;4977799;28;20065;-70
2022/08/30 07:51:34;;;;;;;3.75;1.45;;;20.20;99.90;;;;;;4977756;28;20516;-73
2022/08/30 07:53:59;;;;;;;4.97;0.95;;;20.00;99.80;;;;;;4976686;28;20046;-70
2022/08/30 07:56:26;;;;;;;4.05;1.02;;;19.90;99.90;;;;;;4977995;28;20135;-72
2022/08/30 07:58:52;;;;;;;5.88;0.93;;;20.00;99.90;;;;;;4977586;28;20035;-70
2022/08/30 08:01:19;;;;;;;3.85;0.95;;;20.20;99.60;;;;;;4977879;28;20047;-71
2022/08/30 08:03:46;;;;;;;4.05;1.00;;;20.20;99.60;;;;;;4977584;28;20456;-71
2022/08/30 08:06:14;;;;;;;3.50;1.10;;;20.10;99.80;;;;;;4977607;28;20051;-71
2022/08/30 08:08:41;;;;;;;2.13;0.70;;;20.20;99.70;;;;;;4977596;28;20169;-71
2022/08/30 08:11:13;;;;;;;4.60;1.13;;;20.20;99.40;;;;;;4976963;28;20101;-69
2022/08/30 08:13:40;;;;;;;1.77;1.00;;;20.30;99.40;;;;;;4977821;28;20043;-75
2022/08/30 08:16:06;;;;;;;4.13;0.82;;;20.10;99.10;;;;;;4977683;28;20047;-70
2022/08/30 08:18:32;;;;;;;3.90;1.00;;;20.10;99.40;;;;;;4976724;28;20085;-70
2022/08/30 08:20:59;;;;;;;4.82;1.30;;;20.00;99.50;;;;;;4977543;28;20434;-70
2022/08/30 08:23:24;;;;;;;2.05;0.70;;;20.20;99.30;;;;;;4977703;28;20047;-70
2022/08/30 08:25:50;;;;;;;3.45;0.90;;;20.20;99.10;;;;;;4977421;28;20049;-70
2022/08/30 08:28:16;;;;;;;3.47;1.02;;;20.30;98.90;;;;;;4977487;28;20077;-70
2022/08/30 08:30:43;;;;;;;4.90;0.80;;;20.50;98.90;;;;;;4992527;28;20425;-70
2022/08/30 08:33:09;;;;;;;1.75;0.88;;;20.50;99.10;;;;;;4977223;28;20417;-70
2022/08/30 08:35:35;;;;;;;3.20;0.80;;;20.50;98.90;;;;;;4977259;28;20097;-70
2022/08/30 08:38:01;;;;;;;3.83;0.90;;;20.50;98.60;;;;;;4977406;28;20066;-70
2022/08/30 08:40:27;;;;;;;4.00;1.00;;;20.40;98.70;;;;;;4977365;28;20103;-70
2022/08/30 08:43:07;;;;;;;5.30;1.00;;;20.50;98.80;;;;;;4976918;28;20041;-70
2022/08/30 08:45:49;;;;;;;2.03;0.85;;;20.70;98.60;;;;;;4976524;28;20383;-71
2022/08/30 08:48:38;;;;;;;2.22;0.95;;;20.80;98.70;;;;;;4977507;28;20097;-70
2022/08/30 08:54:03;;;;;;;2.22;0.60;;;21.10;98.50;;;;;;4977059;28;20054;-71
2022/08/30 08:56:29;;;;;;;1.85;0.85;;;21.20;98.40;;;;;;4977099;28;20045;-70
2022/08/30 08:58:56;;;;;;;3.17;1.00;;;21.30;98.60;;;;;;4977022;28;20043;-70
2022/08/30 09:01:28;;;;;;;3.72;0.70;;;21.40;98.30;;;;;;4977269;28;20333;-70
2022/08/30 09:03:56;;;;;;;4.03;1.08;;;21.30;98.20;;;;;;4977029;28;20050;-70
2022/08/30 09:06:31;;;;;;;3.20;1.10;;;21.20;98.10;;;;;;4977176;28;20042;-70
2022/08/30 09:08:57;;;;;;;3.30;0.70;;;21.20;98.60;;;;;;4977235;28;20047;-70
2022/08/30 09:11:27;;;;;;;4.18;0.75;;;21.10;98.50;;;;;;4976601;28;20449;-70
2022/08/30 09:13:53;;;;;;;2.47;0.75;;;21.10;98.10;;;;;;4977127;28;20042;-70
2022/08/30 09:16:47;;;;;;;3.17;0.70;;;21.10;98.40;;;;;;4977104;28;20097;-70
2022/08/30 09:19:30;;;;;;;1.90;0.98;;;21.20;98.30;;;;;;4977206;28;20133;-70
2022/08/30 09:22:02;;;;;;;4.15;0.90;;;21.20;98.50;;;;;;4979614;28;20053;-70
2022/08/30 09:24:53;;;;;;;3.67;0.93;;;21.50;98.50;;;;;;4980595;28;20369;-70
2022/08/30 09:27:31;;;;;;;5.72;1.05;;;21.40;98.30;;;;;;4979212;28;20043;-70
2022/08/30 09:30:16;;;;;;;1.45;0.88;;;21.60;98.00;;;;;;4980445;28;20047;-71
2022/08/30 09:33:02;;;;;;;2.72;0.60;;;21.80;98.10;;;;;;4980439;28;20430;-70
2022/08/30 09:35:41;;;;;;;2.67;0.80;;;21.80;98.10;;;;;;4979998;28;20059;-72
2022/08/30 09:38:15;;;;;;;2.75;0.95;;;21.80;98.30;;;;;;4980171;28;20512;-70
2022/08/30 09:40:53;;;;;;;1.83;0.80;;;22.00;98.10;;;;;;4979998;28;20497;-70
2022/08/30 09:43:26;;;;;;;3.63;1.02;;;22.00;97.70;;;;;;4979588;28;20446;-70
2022/08/30 09:46:01;;;;;;;3.55;0.90;;;22.00;97.80;;;;;;4979957;28;20047;-70
2022/08/30 09:48:43;;;;;;;4.13;1.08;;;22.20;97.90;;;;;;4995323;28;20062;-70
2022/08/30 09:51:14;;;;;;;3.70;0.73;;;22.40;98.00;;;;;;4980068;28;20409;-70
2022/08/30 09:53:58;;;;;;;1.58;0.60;;;22.70;97.90;;;;;;4979872;28;20139;-70
2022/08/30 09:56:38;;;;;;;4.43;0.90;;;22.60;97.60;;;;;;4979672;28;20050;-71
2022/08/30 09:59:25;;;;;;;3.63;0.88;;;22.20;97.60;;;;;;4980058;28;20117;-70
2022/08/30 10:02:05;;;;;;;2.72;0.60;;;22.30;97.50;;;;;;4979708;28;20039;-70
2022/08/30 10:04:43;;;;;;;2.65;0.85;;;22.60;97.10;;;;;;4978824;28;20049;-70
2022/08/30 10:07:38;;;;;;;3.58;0.93;;;22.80;97.40;;;;;;4979573;28;20425;-70
2022/08/30 10:10:22;;;;;;;3.53;1.02;;;23.10;97.10;;;;;;4979046;28;20101;-70
2022/08/30 10:13:10;;;;;;;2.25;0.82;;;23.10;97.10;;;;;;4994413;28;20429;-70
2022/08/30 10:15:44;;;;;;;1.95;0.82;;;23.30;97.50;;;;;;4979383;28;20448;-71
2022/08/30 10:18:39;;;;;;;1.58;0.80;;;23.40;97.30;;;;;;4979535;28;20042;-70
2022/08/30 10:21:18;;;;;;;2.33;0.60;;;23.60;97.10;;;;;;4979545;28;20058;-70
2022/08/30 10:23:52;;;;;;;2.60;0.70;;;23.80;97.00;;;;;;4978182;28;20440;-71
2022/08/30 10:26:36;;;;;;;6.60;1.30;;;23.90;96.60;;;;;;4979617;28;20050;-70
2022/08/30 10:29:28;;;;;;;2.95;0.63;;;23.60;96.90;;;;;;4979199;28;20451;-70
2022/08/30 10:32:09;;;;;;;2.85;0.90;;;23.30;96.50;;;;;;4993455;28;20126;-71
2022/08/30 10:34:50;;;;;;;3.53;0.85;;;23.70;96.90;;;;;;4979212;28;20163;-70
2022/08/30 10:37:20;;;;;;;1.67;0.70;;;23.70;96.80;;;;;;4979140;28;20070;-70
2022/08/30 10:39:50;;;;;;;4.40;0.77;;;24.20;96.70;;;;;;4978319;28;20457;-70
2022/08/30 10:42:25;;;;;;;4.72;0.80;;;24.60;96.40;;;;;;4978779;28;20089;-71
2022/08/30 10:45:04;;;;;;;1.52;0.70;;;24.80;96.00;;;;;;4977918;28;20447;-70
2022/08/30 10:47:55;;;;;;;2.03;0.80;;;24.60;96.00;;;;;;4994384;28;20043;-70
2022/08/30 10:50:30;;;;;;;1.83;0.60;;;24.50;96.30;;;;;;4978617;28;20117;-70
2022/08/30 10:53:02;;;;;;;2.22;0.93;;;24.60;96.20;;;;;;4978792;28;20030;-71
2022/08/30 10:55:33;;;;;;;2.92;0.90;;;24.90;96.20;;;;;;4979063;28;20054;-70
2022/08/30 10:58:00;;;;;;;3.70;0.80;;;24.80;95.80;;;;;;4978786;28;20117;-70
2022/08/30 11:00:37;;;;;;;2.17;0.80;;;24.80;96.20;;;;;;4977939;28;20057;-70
2022/08/30 11:03:18;;;;;;;2.55;0.52;;;25.00;95.90;;;;;;4978516;28;20078;-71
2022/08/30 11:06:03;;;;;;;3.40;0.70;;;25.00;96.00;;;;;;4978683;28;20314;-71
2022/08/30 11:09:04;;;;;;;2.15;0.90;;;25.10;95.60;;;;;;4978829;28;20053;-70
2022/08/30 11:11:56;;;;;;;1.70;0.63;;;24.70;95.90;;;;;;4977911;28;20132;-71
2022/08/30 11:14:23;;;;;;;4.45;0.70;;;24.40;95.90;;;;;;4977536;28;20050;-71
2022/08/30 11:16:51;;;;;;;2.28;0.60;;;24.50;96.10;;;;;;4978386;28;20054;-70
2022/08/30 11:19:35;;;;;;;8.63;1.17;;;24.90;95.80;;;;;;4978335;28;20043;-71
2022/08/30 11:22:14;;;;;;;7.13;1.23;;;25.00;95.50;;;;;;4978201;28;20039;-70
2022/08/30 11:25:31;;;;;;;4.75;0.88;;;24.80;95.40;;;;;;4978378;28;20046;-71
2022/08/30 11:27:57;;;;;;;4.00;0.73;;;24.60;95.50;;;;;;4978450;28;20047;-71
2022/08/30 11:30:23;;;;;;;8.13;0.80;;;25.00;95.50;;;;;;4977980;28;20053;-71
2022/08/30 11:33:19;;;;;;;1.35;0.52;;;25.20;95.60;;;;;;4977085;28;20126;-71
2022/08/30 11:35:51;;;;;;;1.67;0.80;;;25.20;95.10;;;;;;4977308;28;20051;-71
2022/08/30 11:38:16;;;;;;;2.53;0.70;;;25.00;95.20;;;;;;4978138;28;20430;-70
2022/08/30 11:40:44;;;;;;;4.10;0.70;;;25.00;95.30;;;;;;4977959;28;20097;-71
2022/08/30 11:43:45;;;;;;;2.28;0.75;;;25.00;95.20;;;;;;4977249;28;20369;-70
2022/08/30 11:46:25;;;;;;;1.38;0.68;;;24.90;95.40;;;;;;4977776;28;20400;-70
2022/08/30 11:49:25;;;;;;;3.85;0.80;;;25.40;95.70;;;;;;4977151;28;20314;-71
2022/08/30 11:52:10;;;;;;;3.33;1.30;;;25.80;95.40;;;;;;4976368;28;20385;-70
2022/08/30 11:55:10;;;;;;;1.30;0.60;;;26.10;95.20;;;;;;4978049;28;20046;-71
2022/08/30 11:58:12;;;;;;;3.50;0.80;;;26.20;95.10;;;;;;4977992;28;20042;-71
2022/08/30 12:00:46;;;;;;;3.08;0.52;;;26.30;95.10;;;;;;4978004;28;20039;-71
2022/08/30 12:03:15;;;;;;;2.78;0.82;;;26.40;95.10;;;;;;4977722;28;20043;-71
2022/08/30 12:05:45;;;;;;;1.58;0.63;;;27.10;95.40;;;;;;4993015;28;20035;-71
2022/08/30 12:08:22;;;;;;;3.10;0.68;;;27.10;94.50;;;;;;4977866;28;20031;-71
2022/08/30 12:11:09;;;;;;;1.13;0.68;;;27.10;94.60;;;;;;4976642;28;20350;-71
2022/08/30 12:13:51;;;;;;;1.38;0.60;;;27.00;94.60;;;;;;4976422;28;20445;-71
2022/08/30 12:16:23;;;;;;;1.08;0.50;;;27.50;94.50;;;;;;4977526;28;20039;-71
2022/08/30 12:19:08;;;;;;;1.45;0.70;;;27.80;94.80;;;;;;4977792;28;20042;-71
2022/08/30 12:21:35;;;;;;;1.15;0.70;;;28.30;94.90;;;;;;4977544;28;20089;-71
2022/08/30 12:24:28;;;;;;;0.90;0.55;;;28.10;94.40;;;;;;4977657;28;20078;-71
2022/08/30 12:26:57;;;;;;;1.33;0.60;;;28.30;94.50;;;;;;4976206;28;20133;-71
2022/08/30 12:29:28;;;;;;;0.95;0.55;;;28.50;94.20;;;;;;4976610;28;20051;-72
2022/08/30 12:31:59;;;;;;;1.50;0.88;;;28.40;94.10;;;;;;4976334;28;20047;-71
2022/08/30 12:34:48;;;;;;;3.20;1.00;;;28.70;94.30;;;;;;4977235;28;20121;-71
2022/08/30 12:37:27;;;;;;;1.65;0.80;;;28.50;94.00;;;;;;4977465;28;20049;-71
2022/08/30 12:40:14;;;;;;;2.03;0.85;;;28.10;94.20;;;;;;4977211;28;20050;-71
2022/08/30 12:42:52;;;;;;;2.40;0.68;;;28.00;94.10;;;;;;4992423;28;20042;-71
2022/08/30 12:45:24;;;;;;;2.83;0.80;;;27.90;94.20;;;;;;4977161;28;20035;-71
2022/08/30 12:47:55;;;;;;;1.25;0.68;;;28.40;94.50;;;;;;4977502;28;20058;-71
2022/08/30 12:50:25;;;;;;;2.08;0.60;;;28.00;94.10;;;;;;4977131;28;20365;-71
2022/08/30 12:53:10;;;;;;;2.78;0.50;;;28.20;94.20;;;;;;4977020;28;20452;-71
2022/08/30 12:55:54;;;;;;;2.35;0.70;;;28.40;94.00;;;;;;4976840;28;20046;-71
2022/08/30 12:58:43;;;;;;;2.75;0.55;;;28.60;94.10;;;;;;4979831;28;20042;-71
2022/08/30 13:01:12;;;;;;;1.25;0.70;;;28.70;94.20;;;;;;4979724;28;20054;-71
2022/08/30 13:03:38;;;;;;;4.35;0.60;;;29.20;94.00;;;;;;4980964;28;20039;-71
2022/08/30 13:06:07;;;;;;;1.27;0.50;;;29.40;93.90;;;;;;4980857;28;20307;-71
2022/08/30 13:08:49;;;;;;;2.20;0.80;;;29.00;93.70;;;;;;4979890;28;20295;-71
2022/08/30 13:11:26;;;;;;;2.28;0.80;;;29.00;93.60;;;;;;4980670;28;20054;-71
2022/08/30 13:14:15;;;;;;;1.10;0.70;;;28.80;93.60;;;;;;4980593;28;20031;-72
2022/08/30 13:16:41;;;;;;;0.95;0.47;;;28.80;93.80;;;;;;4980571;28;20061;-71